Farden, Minnesota
Current Conditions -  °F | °C
As of 5:55 PM on Saturday 22 Nov 2014 (Local Time) from KY49 Reporting Station
Clear Clear  
Wind Chill: 31°   Ceiling: Unl
Heat Index: 37°   Visibility: 10mi
Dew Point: 28°   Wind: 7mph
Humidity: 72%   Direction: 130°SE
Pressure: 29.49"   Gusts: NA
Location:  47.3012°N, 94.5426°W
Report Text: KY49 222355Z AUTO 13006KT 10SM CLR 03/M02 A2949 RMK AO2 T00251020 10066 20025
Loading
Personal Weather Stations






























Interactive Weather Map New forecast layout! Learn more

10-Day Weather Forecast

Advertisements
Track Severe Weather on mobile